createdAt,value
2019-05-25T00:02:07.090Z,68.20
2019-05-25T00:04:36.232Z,68.40
2019-05-25T00:07:05.399Z,68.50
2019-05-25T00:09:34.467Z,68.70
2019-05-25T00:12:03.658Z,68.80
2019-05-25T00:14:32.754Z,69.00
2019-05-25T00:17:01.770Z,69.10
2019-05-25T00:19:30.787Z,69.40
2019-05-25T00:21:59.735Z,69.30
2019-05-25T00:24:28.762Z,69.40
2019-05-25T00:26:57.750Z,69.40
2019-05-25T00:29:26.815Z,69.60
2019-05-25T00:31:55.924Z,72.40
2019-05-25T00:34:25.008Z,69.90
2019-05-25T00:36:54.027Z,69.90
2019-05-25T00:39:23.009Z,69.90
2019-05-25T00:41:52.061Z,70.00
2019-05-25T00:44:21.139Z,70.10
2019-05-25T00:47:09.313Z,70.10
2019-05-25T00:49:38.407Z,70.30
2019-05-25T00:52:07.502Z,70.40
2019-05-25T00:54:36.559Z,70.50
2019-05-25T00:57:06.750Z,70.60
2019-05-25T00:59:35.792Z,70.60
2019-05-25T01:02:04.906Z,70.80
2019-05-25T01:04:34.035Z,70.90
2019-05-25T01:07:03.030Z,70.90
2019-05-25T01:09:32.033Z,70.90
2019-05-25T01:12:01.542Z,71.10
2019-05-25T01:14:30.622Z,71.30
2019-05-25T01:16:59.814Z,71.40
2019-05-25T01:19:28.889Z,71.60
2019-05-25T01:21:57.944Z,71.70
2019-05-25T01:24:42.886Z,71.90
2019-05-25T01:26:57.747Z,71.90
2019-05-25T01:29:26.819Z,71.90
2019-05-25T01:31:55.880Z,72.10
2019-05-25T01:34:24.891Z,72.10
2019-05-25T01:36:53.998Z,72.30
2019-05-25T01:39:23.154Z,72.40
2019-05-25T01:41:52.172Z,72.50
2019-05-25T01:44:21.254Z,72.60
2019-05-25T01:46:50.435Z,72.90
2019-05-25T01:49:19.568Z,72.90
2019-05-25T01:51:48.722Z,73.00
2019-05-25T01:54:18.036Z,73.10
2019-05-25T01:56:47.234Z,73.30
2019-05-25T01:59:16.319Z,73.40
2019-05-25T02:01:52.047Z,73.50
2019-05-25T02:04:21.244Z,73.60
2019-05-25T02:06:50.291Z,73.70
2019-05-25T02:09:20.739Z,73.70
2019-05-25T02:11:49.782Z,73.80
2019-05-25T02:14:18.885Z,73.80
2019-05-25T02:16:47.977Z,73.80
2019-05-25T02:19:17.056Z,73.90
2019-05-25T02:21:46.089Z,73.90
2019-05-25T02:24:15.150Z,74.00
2019-05-25T02:26:44.296Z,74.10
2019-05-25T02:29:13.385Z,74.20
2019-05-25T02:31:42.464Z,74.10
2019-05-25T02:34:11.596Z,74.30
2019-05-25T02:36:40.678Z,74.50
2019-05-25T02:39:09.838Z,74.60
2019-05-25T02:41:38.868Z,74.60
2019-05-25T02:44:07.960Z,74.70
2019-05-25T02:46:37.014Z,74.90
2019-05-25T02:49:06.143Z,75.10
2019-05-25T02:51:35.211Z,75.90
2019-05-25T02:54:04.302Z,75.20
2019-05-25T02:56:33.418Z,75.30
2019-05-25T02:59:02.541Z,74.90
2019-05-25T03:01:31.579Z,75.60
2019-05-25T03:04:00.588Z,75.70
2019-05-25T03:06:29.606Z,75.70
2019-05-25T03:08:58.677Z,75.80
2019-05-25T03:11:29.547Z,75.80
2019-05-25T03:13:59.118Z,75.80
2019-05-25T03:16:28.130Z,75.80
2019-05-25T03:18:57.176Z,75.90
2019-05-25T03:21:26.258Z,75.80
2019-05-25T03:23:55.353Z,75.80
2019-05-25T03:26:24.368Z,75.80
2019-05-25T03:28:53.522Z,75.80
2019-05-25T03:31:22.545Z,75.90
2019-05-25T03:33:51.599Z,76.00
2019-05-25T03:36:20.634Z,76.10
2019-05-25T03:38:49.639Z,76.10
2019-05-25T03:41:18.697Z,76.80
2019-05-25T03:43:47.795Z,76.10
2019-05-25T03:46:16.850Z,75.30
2019-05-25T03:48:48.864Z,76.10
2019-05-25T03:51:17.921Z,76.00
2019-05-25T03:53:46.943Z,75.90
2019-05-25T03:56:15.970Z,75.90
2019-05-25T03:58:45.774Z,75.80
2019-05-25T04:01:14.772Z,75.80
2019-05-25T04:03:43.797Z,75.70
2019-05-25T04:06:12.943Z,75.70
2019-05-25T04:08:41.988Z,75.80
2019-05-25T04:11:11.000Z,75.80
2019-05-25T04:13:40.096Z,75.70
2019-05-25T04:16:09.255Z,75.80
2019-05-25T04:18:38.370Z,75.70
2019-05-25T04:21:07.430Z,75.70
2019-05-25T04:23:36.430Z,75.70
2019-05-25T04:26:20.940Z,75.70
2019-05-25T04:28:37.183Z,75.70
2019-05-25T04:31:08.086Z,75.60
2019-05-25T04:33:37.142Z,75.50
2019-05-25T04:36:06.123Z,75.50
2019-05-25T04:38:35.197Z,75.50
2019-05-25T04:41:04.354Z,75.40
2019-05-25T04:43:33.495Z,75.40
2019-05-25T04:46:02.554Z,75.40
2019-05-25T04:48:31.672Z,75.50
2019-05-25T04:51:00.735Z,75.50
2019-05-25T04:53:29.822Z,75.50
2019-05-25T04:55:58.887Z,75.40
2019-05-25T04:58:28.041Z,75.30
2019-05-25T05:00:57.117Z,75.40
2019-05-25T05:03:26.246Z,75.40
2019-05-25T05:05:55.326Z,75.30
2019-05-25T05:08:24.442Z,75.30
2019-05-25T05:10:53.545Z,75.30
2019-05-25T05:13:22.631Z,75.10
2019-05-25T05:15:51.737Z,75.00
2019-05-25T05:18:20.930Z,75.00
2019-05-25T05:20:49.946Z,75.00
2019-05-25T05:23:19.084Z,75.20
2019-05-25T05:25:48.138Z,75.20
2019-05-25T05:28:17.170Z,75.20
2019-05-25T05:30:46.181Z,75.20
2019-05-25T05:33:15.219Z,75.20
2019-05-25T05:35:44.253Z,74.90
2019-05-25T05:38:13.759Z,75.20
2019-05-25T05:40:42.753Z,75.30
2019-05-25T05:43:14.519Z,75.20
2019-05-25T05:45:43.633Z,75.20
2019-05-25T05:48:13.375Z,75.10
2019-05-25T05:50:42.813Z,75.10
2019-05-25T05:53:11.844Z,75.20
2019-05-25T05:55:40.995Z,75.10
2019-05-25T05:58:10.009Z,75.10
2019-05-25T06:00:39.138Z,74.90
2019-05-25T06:03:08.314Z,74.80
2019-05-25T06:05:37.804Z,74.80
2019-05-25T06:08:16.469Z,74.60
2019-05-25T06:10:45.510Z,74.60
2019-05-25T06:13:14.550Z,74.50
2019-05-25T06:15:43.609Z,74.40
2019-05-25T06:18:12.632Z,74.90
2019-05-25T06:20:41.653Z,74.20
2019-05-25T06:23:12.521Z,74.10
2019-05-25T06:25:41.439Z,74.00
2019-05-25T06:28:10.441Z,73.60
2019-05-25T06:30:39.530Z,73.50
2019-05-25T06:33:08.583Z,73.30
2019-05-25T06:35:37.623Z,73.10
2019-05-25T06:38:06.698Z,73.10
2019-05-25T06:40:35.724Z,72.50
2019-05-25T06:43:04.783Z,72.20
2019-05-25T06:45:33.883Z,72.00
2019-05-25T06:48:02.977Z,71.90
2019-05-25T06:50:32.019Z,71.70
2019-05-25T06:53:01.098Z,71.50
2019-05-25T06:55:30.234Z,71.40
2019-05-25T06:57:59.315Z,71.10
2019-05-25T07:00:28.368Z,71.00
2019-05-25T07:02:57.603Z,70.80
2019-05-25T07:05:26.636Z,70.50
2019-05-25T07:07:55.825Z,70.50
2019-05-25T07:10:24.874Z,70.10
2019-05-25T07:12:53.872Z,69.70
2019-05-25T07:15:22.918Z,69.40
2019-05-25T07:17:51.901Z,68.90
2019-05-25T07:20:20.920Z,68.70
2019-05-25T07:22:49.987Z,68.30
2019-05-25T07:25:20.248Z,68.90
2019-05-25T07:27:58.642Z,67.70
2019-05-25T07:30:20.403Z,67.30
2019-05-25T07:32:49.447Z,66.90
2019-05-25T07:35:18.416Z,66.70
2019-05-25T07:37:47.455Z,66.40
2019-05-25T07:40:16.528Z,66.10
2019-05-25T07:42:45.634Z,65.80
2019-05-25T07:45:14.702Z,65.50
2019-05-25T07:47:43.724Z,65.40
2019-05-25T07:50:12.741Z,65.30
2019-05-25T07:52:41.733Z,65.10
2019-05-25T07:55:10.817Z,65.10
2019-05-25T07:57:39.860Z,64.90
2019-05-25T08:00:08.930Z,64.80
2019-05-25T08:02:38.069Z,64.70
2019-05-25T08:05:07.168Z,64.60
2019-05-25T08:07:36.193Z,64.50
2019-05-25T08:10:05.565Z,64.60
2019-05-25T08:12:34.636Z,64.60
2019-05-25T08:15:03.731Z,64.40
2019-05-25T08:17:32.783Z,64.30
2019-05-25T08:20:01.868Z,64.20
2019-05-25T08:22:30.923Z,64.00
2019-05-25T08:25:00.054Z,64.00
2019-05-25T08:27:29.227Z,63.90
2019-05-25T08:29:58.253Z,63.70
2019-05-25T08:32:27.248Z,63.40
2019-05-25T08:34:56.276Z,62.50
2019-05-25T08:37:25.310Z,60.90
2019-05-25T08:39:54.734Z,58.50
2019-05-25T08:42:23.740Z,56.70
2019-05-25T08:44:55.533Z,55.70
2019-05-25T08:47:24.534Z,56.10
2019-05-25T08:49:58.273Z,56.60
2019-05-25T08:52:27.758Z,56.90
2019-05-25T08:54:56.916Z,56.60
2019-05-25T08:57:25.918Z,56.20
2019-05-25T08:59:54.991Z,56.00
2019-05-25T09:02:24.058Z,55.50
2019-05-25T09:04:53.050Z,55.10
2019-05-25T09:07:22.146Z,54.80
2019-05-25T09:09:55.617Z,54.70
2019-05-25T09:12:24.684Z,53.10
2019-05-25T09:14:53.725Z,51.70
2019-05-25T09:17:22.769Z,50.80
2019-05-25T09:19:53.003Z,51.10
2019-05-25T09:22:22.046Z,51.00
2019-05-25T09:24:51.068Z,50.40
2019-05-25T09:27:20.097Z,50.50
2019-05-25T09:29:49.374Z,50.50
2019-05-25T09:32:18.401Z,50.30
2019-05-25T09:34:47.462Z,50.10
2019-05-25T09:37:16.508Z,49.70
2019-05-25T09:39:45.512Z,49.50
2019-05-25T09:42:14.530Z,49.00
2019-05-25T09:44:43.602Z,48.70
2019-05-25T09:47:12.731Z,48.60
2019-05-25T09:49:41.762Z,48.50
2019-05-25T09:52:10.919Z,48.40
2019-05-25T09:54:39.937Z,48.50
2019-05-25T09:57:09.026Z,48.70
2019-05-25T09:59:38.153Z,48.80
2019-05-25T10:02:07.225Z,48.80
2019-05-25T10:04:36.393Z,49.00
2019-05-25T10:07:05.427Z,49.00
2019-05-25T10:09:34.482Z,48.90
2019-05-25T10:12:03.561Z,49.00
2019-05-25T10:14:32.673Z,49.00
2019-05-25T10:17:01.690Z,48.80
2019-05-25T10:19:30.750Z,48.40
2019-05-25T10:21:59.879Z,48.40
2019-05-25T10:24:28.873Z,48.20
2019-05-25T10:26:57.899Z,48.00
2019-05-25T10:29:36.589Z,47.80
2019-05-25T10:31:57.754Z,47.60
2019-05-25T10:34:26.886Z,47.60
2019-05-25T10:36:56.018Z,47.30
2019-05-25T10:39:25.065Z,47.30
2019-05-25T10:41:54.068Z,47.30
2019-05-25T10:44:23.235Z,47.40
2019-05-25T10:46:52.336Z,47.30
2019-05-25T10:49:21.383Z,47.20
2019-05-25T10:51:50.570Z,47.10
2019-05-25T10:54:19.628Z,46.90
2019-05-25T10:56:48.664Z,47.00
2019-05-25T10:59:17.697Z,47.10
2019-05-25T11:01:46.819Z,47.30
2019-05-25T11:04:15.928Z,47.40
2019-05-25T11:06:45.139Z,47.20
2019-05-25T11:09:14.235Z,47.70
2019-05-25T11:11:43.343Z,46.80
2019-05-25T11:14:12.387Z,46.40
2019-05-25T11:16:41.559Z,46.30
2019-05-25T11:19:10.741Z,46.20
2019-05-25T11:21:39.822Z,46.30
2019-05-25T11:24:08.917Z,46.20
2019-05-25T11:26:37.992Z,46.40
2019-05-25T11:29:07.087Z,46.40
2019-05-25T11:31:36.379Z,46.30
2019-05-25T11:34:07.778Z,46.00
2019-05-25T11:36:36.930Z,45.80
2019-05-25T11:39:06.970Z,45.60
2019-05-25T11:41:40.355Z,45.40
2019-05-25T11:44:12.652Z,45.20
2019-05-25T11:46:41.666Z,44.90
2019-05-25T11:49:22.195Z,44.60
2019-05-25T11:51:42.589Z,44.40
2019-05-25T11:54:11.650Z,44.20
2019-05-25T11:56:40.660Z,44.00
2019-05-25T11:59:09.679Z,43.80
2019-05-25T12:01:38.839Z,43.80
2019-05-25T12:04:07.916Z,43.90
2019-05-25T12:06:37.009Z,43.90
2019-05-25T12:09:07.434Z,43.90
2019-05-25T12:11:36.610Z,44.00
2019-05-25T12:14:05.627Z,44.10
2019-05-25T12:16:34.680Z,44.10
2019-05-25T12:19:03.712Z,44.30
2019-05-25T12:21:32.778Z,44.70
2019-05-25T12:24:01.840Z,44.10
2019-05-25T12:26:31.046Z,44.30
2019-05-25T12:29:00.130Z,44.30
2019-05-25T12:31:29.224Z,44.40
2019-05-25T12:33:58.260Z,44.40
2019-05-25T12:36:27.449Z,44.40
2019-05-25T12:38:56.609Z,44.50
2019-05-25T12:41:25.723Z,44.30
2019-05-25T12:43:54.799Z,44.20
2019-05-25T12:46:23.860Z,43.80
2019-05-25T12:48:52.932Z,43.50
2019-05-25T12:51:22.087Z,43.40
2019-05-25T12:53:51.115Z,43.20
2019-05-25T12:56:20.102Z,43.10
2019-05-25T12:58:50.230Z,42.90
2019-05-25T13:01:19.469Z,42.90
2019-05-25T13:03:48.532Z,42.90
2019-05-25T13:06:18.307Z,42.80
2019-05-25T13:08:47.571Z,42.90
2019-05-25T13:11:16.603Z,43.20
2019-05-25T13:13:45.763Z,43.40
2019-05-25T13:16:14.796Z,43.90
2019-05-25T13:18:43.943Z,44.40
2019-05-25T13:21:13.011Z,44.90
2019-05-25T13:23:42.071Z,45.30
2019-05-25T13:26:11.134Z,45.50
2019-05-25T13:28:40.202Z,45.70
2019-05-25T13:31:12.073Z,45.90
2019-05-25T13:33:39.982Z,45.90
2019-05-25T13:36:09.050Z,46.00
2019-05-25T13:38:38.078Z,46.20
2019-05-25T13:41:07.209Z,46.20
2019-05-25T13:43:36.306Z,46.20
2019-05-25T13:46:05.330Z,46.40
2019-05-25T13:48:34.383Z,46.50
2019-05-25T13:51:03.523Z,46.50
2019-05-25T13:53:33.126Z,46.60
2019-05-25T13:56:02.260Z,46.70
2019-05-25T13:58:31.293Z,46.80
2019-05-25T14:01:00.435Z,46.80
2019-05-25T14:03:29.511Z,46.90
2019-05-25T14:05:58.553Z,47.00
2019-05-25T14:08:27.628Z,46.90
2019-05-25T14:10:56.708Z,46.70
2019-05-25T14:13:25.726Z,46.60
2019-05-25T14:16:06.510Z,46.60
2019-05-25T14:18:25.452Z,46.50
2019-05-25T14:20:54.497Z,46.50
2019-05-25T14:23:23.523Z,46.40
2019-05-25T14:25:52.587Z,46.30
2019-05-25T14:28:21.608Z,46.20
2019-05-25T14:30:50.647Z,46.00
2019-05-25T14:33:19.689Z,45.90
2019-05-25T14:35:48.698Z,45.70
2019-05-25T14:38:17.722Z,45.50
2019-05-25T14:40:46.780Z,45.50
2019-05-25T14:43:15.819Z,45.40
2019-05-25T14:45:44.887Z,45.20
2019-05-25T14:48:14.016Z,45.10
2019-05-25T14:50:43.178Z,45.10
2019-05-25T14:53:12.396Z,45.20
2019-05-25T14:55:41.464Z,45.30
2019-05-25T14:58:12.825Z,45.40
2019-05-25T15:00:41.372Z,45.70
2019-05-25T15:03:10.447Z,45.80
2019-05-25T15:05:39.495Z,45.80
2019-05-25T15:08:08.529Z,45.90
2019-05-25T15:10:37.554Z,46.00
2019-05-25T15:13:06.589Z,46.10
2019-05-25T15:15:35.652Z,46.10
2019-05-25T15:18:04.730Z,46.10
2019-05-25T15:20:33.875Z,46.00
2019-05-25T15:23:02.905Z,46.00
2019-05-25T15:25:31.966Z,46.10
2019-05-25T15:28:01.035Z,46.00
2019-05-25T15:30:30.187Z,45.90
2019-05-25T15:32:59.286Z,45.90
2019-05-25T15:35:28.348Z,45.80
2019-05-25T15:37:57.425Z,45.70
2019-05-25T15:40:26.458Z,45.70
2019-05-25T15:42:55.583Z,45.60
2019-05-25T15:45:24.665Z,45.80
2019-05-25T15:47:53.706Z,45.90
2019-05-25T15:50:22.851Z,45.90
2019-05-25T15:52:51.925Z,46.00
2019-05-25T15:55:21.039Z,46.00
2019-05-25T15:57:50.095Z,46.00
2019-05-25T16:00:19.353Z,45.90
2019-05-25T16:02:48.514Z,45.90
2019-05-25T16:05:18.440Z,46.00
2019-05-25T16:08:06.283Z,46.10
2019-05-25T16:10:32.547Z,46.00
2019-05-25T16:13:01.759Z,45.90
2019-05-25T16:15:30.849Z,46.70
2019-05-25T16:18:00.076Z,45.90
2019-05-25T16:20:29.131Z,45.60
2019-05-25T16:22:58.234Z,45.10
2019-05-25T16:25:27.346Z,45.10
2019-05-25T16:27:56.396Z,44.90
2019-05-25T16:30:25.503Z,44.70
2019-05-25T16:33:12.948Z,44.70
2019-05-25T16:35:25.423Z,44.70
2019-05-25T16:37:54.670Z,44.60
2019-05-25T16:40:23.711Z,44.60
2019-05-25T16:42:52.924Z,44.60
2019-05-25T16:45:22.064Z,44.70
2019-05-25T16:47:51.161Z,44.60
2019-05-25T16:50:20.254Z,44.50
2019-05-25T16:52:49.373Z,44.40
2019-05-25T16:55:18.485Z,44.40
2019-05-25T16:57:50.329Z,44.40
2019-05-25T17:00:26.368Z,44.50
2019-05-25T17:02:55.902Z,44.60
2019-05-25T17:05:25.062Z,44.50
2019-05-25T17:07:54.145Z,44.60
2019-05-25T17:10:24.462Z,44.60
2019-05-25T17:12:53.613Z,44.70
2019-05-25T17:15:22.704Z,44.80
2019-05-25T17:17:51.874Z,45.10
2019-05-25T17:20:20.931Z,45.30
2019-05-25T17:22:50.042Z,45.60
2019-05-25T17:25:19.184Z,45.80
2019-05-25T17:27:48.326Z,45.80
2019-05-25T17:30:17.619Z,45.70
2019-05-25T17:32:46.706Z,45.90
2019-05-25T17:35:15.763Z,46.00
2019-05-25T17:37:44.779Z,46.10
2019-05-25T17:40:15.854Z,46.20
2019-05-25T17:42:46.900Z,46.30
2019-05-25T17:45:16.009Z,46.50
2019-05-25T17:47:45.124Z,46.80
2019-05-25T17:50:14.188Z,46.90
2019-05-25T17:52:43.254Z,47.00
2019-05-25T17:55:12.349Z,47.10
2019-05-25T17:57:41.368Z,46.90
2019-05-25T18:00:10.671Z,47.30
2019-05-25T18:02:39.701Z,47.30
2019-05-25T18:05:10.319Z,47.50
2019-05-25T18:07:39.349Z,47.70
2019-05-25T18:10:08.326Z,47.90
2019-05-25T18:12:37.479Z,48.20
2019-05-25T18:15:06.597Z,48.40
2019-05-25T18:17:35.705Z,48.50
2019-05-25T18:20:05.243Z,48.70
2019-05-25T18:22:34.351Z,48.90
2019-05-25T18:25:03.506Z,49.90
2019-05-25T18:27:32.502Z,49.60
2019-05-25T18:30:01.657Z,49.90
2019-05-25T18:32:30.734Z,50.30
2019-05-25T18:34:59.844Z,50.60
2019-05-25T18:37:28.968Z,50.80
2019-05-25T18:39:58.073Z,51.00
2019-05-25T18:42:30.193Z,51.20
2019-05-25T18:44:57.938Z,51.30
2019-05-25T18:47:27.038Z,51.40
2019-05-25T18:49:56.094Z,51.70
2019-05-25T18:52:25.122Z,51.80
2019-05-25T18:54:54.225Z,52.00
2019-05-25T18:57:23.515Z,52.10
2019-05-25T18:59:52.530Z,52.10
2019-05-25T19:02:21.607Z,52.90
2019-05-25T19:04:59.614Z,52.30
2019-05-25T19:07:29.797Z,52.40
2019-05-25T19:10:01.657Z,52.50
2019-05-25T19:12:30.706Z,53.40
2019-05-25T19:14:59.865Z,52.80
2019-05-25T19:17:30.042Z,53.00
2019-05-25T19:19:59.121Z,53.10
2019-05-25T19:22:28.274Z,53.40
2019-05-25T19:24:57.335Z,53.50
2019-05-25T19:27:26.338Z,53.70
2019-05-25T19:29:55.323Z,53.90
2019-05-25T19:32:24.463Z,54.00
2019-05-25T19:34:59.474Z,54.10
2019-05-25T19:37:24.295Z,54.30
2019-05-25T19:39:53.309Z,54.50
2019-05-25T19:42:22.392Z,54.60
2019-05-25T19:44:51.408Z,54.70
2019-05-25T19:47:20.465Z,54.70
2019-05-25T19:49:49.529Z,54.90
2019-05-25T19:52:18.768Z,55.00
2019-05-25T19:54:47.782Z,55.10
2019-05-25T19:57:16.853Z,55.20
2019-05-25T19:59:46.115Z,55.30
2019-05-25T20:02:15.163Z,55.30
2019-05-25T20:04:44.253Z,55.30
2019-05-25T20:07:13.386Z,55.40
2019-05-25T20:09:42.456Z,55.50
2019-05-25T20:12:11.503Z,55.50
2019-05-25T20:14:40.518Z,55.60
2019-05-25T20:17:09.642Z,55.60
2019-05-25T20:19:38.699Z,55.80
2019-05-25T20:22:09.257Z,55.80
2019-05-25T20:24:38.450Z,55.90
2019-05-25T20:27:09.389Z,56.00
2019-05-25T20:29:38.460Z,56.10
2019-05-25T20:32:07.492Z,56.20
2019-05-25T20:34:36.572Z,56.40
2019-05-25T20:37:05.657Z,56.50
2019-05-25T20:39:34.807Z,56.70
2019-05-25T20:42:03.860Z,56.80
2019-05-25T20:44:32.924Z,56.90
2019-05-25T20:47:02.029Z,57.00
2019-05-25T20:49:31.177Z,57.10
2019-05-25T20:52:00.243Z,57.30
2019-05-25T20:54:29.255Z,57.50
2019-05-25T20:56:58.219Z,57.70
2019-05-25T20:59:27.258Z,58.00
2019-05-25T21:01:56.303Z,58.10
2019-05-25T21:04:25.316Z,58.30
2019-05-25T21:06:54.337Z,58.50
2019-05-25T21:09:23.391Z,58.50
2019-05-25T21:11:55.805Z,58.70
2019-05-25T21:14:23.126Z,58.80
2019-05-25T21:16:52.199Z,59.00
2019-05-25T21:19:21.581Z,59.20
2019-05-25T21:21:50.785Z,59.40
2019-05-25T21:24:19.831Z,59.60
2019-05-25T21:26:48.920Z,59.90
2019-05-25T21:29:21.433Z,60.00
2019-05-25T21:31:51.815Z,60.30
2019-05-25T21:34:21.181Z,60.60
2019-05-25T21:36:50.791Z,60.80
2019-05-25T21:39:24.516Z,61.20
2019-05-25T21:41:53.551Z,61.40
2019-05-25T21:44:23.563Z,61.70
2019-05-25T21:46:53.468Z,61.90
2019-05-25T21:49:22.533Z,62.10
2019-05-25T21:51:52.899Z,62.20
2019-05-25T21:54:21.949Z,62.50
2019-05-25T21:56:51.144Z,62.80
2019-05-25T21:59:20.803Z,63.10
2019-05-25T22:01:49.859Z,63.30
2019-05-25T22:04:18.998Z,63.60
2019-05-25T22:06:48.107Z,64.00
2019-05-25T22:09:17.098Z,64.30
2019-05-25T22:11:46.194Z,64.40
2019-05-25T22:14:15.270Z,64.60
2019-05-25T22:16:44.439Z,64.80
2019-05-25T22:19:13.473Z,65.00
2019-05-25T22:21:45.935Z,65.20
2019-05-25T22:24:13.253Z,65.40
2019-05-25T22:26:42.283Z,65.60
2019-05-25T22:29:11.636Z,65.80
2019-05-25T22:31:40.953Z,66.00
2019-05-25T22:34:10.100Z,65.90
2019-05-25T22:36:41.091Z,65.80
2019-05-25T22:39:10.023Z,66.10
2019-05-25T22:41:39.115Z,66.20
2019-05-25T22:44:08.155Z,66.40
2019-05-25T22:46:37.227Z,66.80
2019-05-25T22:49:06.298Z,66.90
2019-05-25T22:51:35.327Z,67.10
2019-05-25T22:54:04.318Z,67.20
2019-05-25T22:56:33.329Z,67.40
2019-05-25T22:59:02.361Z,67.60
2019-05-25T23:01:31.451Z,67.70
2019-05-25T23:04:00.499Z,67.70
2019-05-25T23:06:29.496Z,67.90
2019-05-25T23:08:58.645Z,68.00
2019-05-25T23:11:27.690Z,68.10
2019-05-25T23:13:56.730Z,68.30
2019-05-25T23:16:26.372Z,68.40
2019-05-25T23:18:55.507Z,68.80
2019-05-25T23:21:24.561Z,69.10
2019-05-25T23:23:53.646Z,69.50
2019-05-25T23:26:22.705Z,69.80
2019-05-25T23:28:51.761Z,70.00
2019-05-25T23:31:20.809Z,70.20
2019-05-25T23:33:50.075Z,70.20
2019-05-25T23:36:19.097Z,70.50
2019-05-25T23:38:48.092Z,70.70
2019-05-25T23:41:17.311Z,71.00
2019-05-25T23:43:48.233Z,71.10
2019-05-25T23:46:17.263Z,71.30
2019-05-25T23:48:46.301Z,71.40
2019-05-25T23:51:15.287Z,71.50
2019-05-25T23:53:44.359Z,71.60
2019-05-25T23:56:13.429Z,71.60
2019-05-25T23:58:42.575Z,72.60
